sensor_id;sensor_type;location;lat;lon;timestamp;pressure;altitude;pressure_sealevel;temperature;humidity
36748;BME280;22716;51.556;5.080;2023-07-29T00:00:08;100073.69;;;19.14;100.00
36748;BME280;22716;51.556;5.080;2023-07-29T00:02:37;100070.44;;;19.09;100.00
36748;BME280;22716;51.556;5.080;2023-07-29T00:05:07;100067.91;;;19.08;100.00
36748;BME280;22716;51.556;5.080;2023-07-29T00:07:36;100069.69;;;19.07;100.00
36748;BME280;22716;51.556;5.080;2023-07-29T00:10:06;100060.97;;;19.05;100.00
36748;BME280;22716;51.556;5.080;2023-07-29T00:12:35;100063.69;;;19.03;100.00
36748;BME280;22716;51.556;5.080;2023-07-29T00:15:08;100068.94;;;19.05;100.00
36748;BME280;22716;51.556;5.080;2023-07-29T00:17:37;100060.97;;;19.05;100.00
36748;BME280;22716;51.556;5.080;2023-07-29T00:20:07;100061.78;;;19.06;100.00
36748;BME280;22716;51.556;5.080;2023-07-29T00:22:36;100052.03;;;19.06;100.00
36748;BME280;22716;51.556;5.080;2023-07-29T00:25:06;100045.78;;;19.07;100.00
36748;BME280;22716;51.556;5.080;2023-07-29T00:27:34;100049.19;;;19.09;100.00
36748;BME280;22716;51.556;5.080;2023-07-29T00:30:04;100056.06;;;19.13;100.00
36748;BME280;22716;51.556;5.080;2023-07-29T00:32:35;100048.28;;;19.10;100.00
36748;BME280;22716;51.556;5.080;2023-07-29T00:35:06;100044.81;;;19.08;100.00
36748;BME280;22716;51.556;5.080;2023-07-29T00:37:35;100047.69;;;19.05;100.00
36748;BME280;22716;51.556;5.080;2023-07-29T00:40:07;100050.34;;;19.05;100.00
36748;BME280;22716;51.556;5.080;2023-07-29T00:42:38;100045.88;;;19.06;100.00
36748;BME280;22716;51.556;5.080;2023-07-29T00:45:09;100044.16;;;19.05;100.00
36748;BME280;22716;51.556;5.080;2023-07-29T00:47:41;100042.56;;;19.02;100.00
36748;BME280;22716;51.556;5.080;2023-07-29T00:50:11;100045.38;;;18.99;100.00
36748;BME280;22716;51.556;5.080;2023-07-29T00:52:41;100049.03;;;18.96;100.00
36748;BME280;22716;51.556;5.080;2023-07-29T00:55:10;100054.19;;;18.99;100.00
36748;BME280;22716;51.556;5.080;2023-07-29T00:57:39;100046.81;;;19.05;100.00
36748;BME280;22716;51.556;5.080;2023-07-29T01:00:09;100057.34;;;19.06;100.00
36748;BME280;22716;51.556;5.080;2023-07-29T01:02:41;100041.94;;;18.97;100.00
36748;BME280;22716;51.556;5.080;2023-07-29T01:05:12;100038.53;;;18.95;100.00
36748;BME280;22716;51.556;5.080;2023-07-29T01:07:47;100042.03;;;18.95;100.00
36748;BME280;22716;51.556;5.080;2023-07-29T01:10:26;100047.41;;;18.94;100.00
36748;BME280;22716;51.556;5.080;2023-07-29T01:13:06;100055.50;;;18.92;100.00
36748;BME280;22716;51.556;5.080;2023-07-29T01:15:43;100059.06;;;18.91;100.00
36748;BME280;22716;51.556;5.080;2023-07-29T01:18:22;100047.94;;;18.85;100.00
36748;BME280;22716;51.556;5.080;2023-07-29T01:20:53;100056.00;;;18.83;100.00
36748;BME280;22716;51.556;5.080;2023-07-29T01:23:29;100047.19;;;18.83;100.00
36748;BME280;22716;51.556;5.080;2023-07-29T01:25:58;100043.66;;;18.82;100.00
36748;BME280;22716;51.556;5.080;2023-07-29T01:28:27;100049.78;;;18.84;100.00
36748;BME280;22716;51.556;5.080;2023-07-29T01:31:01;100047.13;;;18.84;100.00
36748;BME280;22716;51.556;5.080;2023-07-29T01:33:35;100048.81;;;18.85;100.00
36748;BME280;22716;51.556;5.080;2023-07-29T01:36:10;100051.22;;;18.90;100.00
36748;BME280;22716;51.556;5.080;2023-07-29T01:38:44;100049.50;;;18.89;100.00
36748;BME280;22716;51.556;5.080;2023-07-29T01:41:14;100048.81;;;18.85;100.00
36748;BME280;22716;51.556;5.080;2023-07-29T01:43:45;100053.88;;;18.90;100.00
36748;BME280;22716;51.556;5.080;2023-07-29T01:46:15;100048.75;;;18.87;100.00
36748;BME280;22716;51.556;5.080;2023-07-29T01:48:44;100048.03;;;18.83;100.00
36748;BME280;22716;51.556;5.080;2023-07-29T01:51:13;100048.28;;;18.79;100.00
36748;BME280;22716;51.556;5.080;2023-07-29T01:53:44;100043.66;;;18.82;100.00
36748;BME280;22716;51.556;5.080;2023-07-29T01:56:13;100034.84;;;18.82;100.00
36748;BME280;22716;51.556;5.080;2023-07-29T01:58:41;100033.91;;;18.83;100.00
36748;BME280;22716;51.556;5.080;2023-07-29T02:01:10;100026.81;;;18.83;100.00
36748;BME280;22716;51.556;5.080;2023-07-29T02:03:39;100025.25;;;18.79;100.00
36748;BME280;22716;51.556;5.080;2023-07-29T02:06:08;100026.13;;;18.80;100.00
36748;BME280;22716;51.556;5.080;2023-07-29T02:08:37;100026.31;;;18.77;100.00
36748;BME280;22716;51.556;5.080;2023-07-29T02:11:09;100020.41;;;18.72;100.00
36748;BME280;22716;51.556;5.080;2023-07-29T02:13:38;100019.66;;;18.70;100.00
36748;BME280;22716;51.556;5.080;2023-07-29T02:16:06;100022.38;;;18.68;100.00
36748;BME280;22716;51.556;5.080;2023-07-29T02:18:35;100014.00;;;18.60;100.00
36748;BME280;22716;51.556;5.080;2023-07-29T02:21:04;100022.03;;;18.59;100.00
36748;BME280;22716;51.556;5.080;2023-07-29T02:23:33;100017.16;;;18.51;100.00
36748;BME280;22716;51.556;5.080;2023-07-29T02:26:02;100021.72;;;18.49;100.00
36748;BME280;22716;51.556;5.080;2023-07-29T02:28:34;100025.25;;;18.48;100.00
36748;BME280;22716;51.556;5.080;2023-07-29T02:31:12;100020.84;;;18.49;100.00
36748;BME280;22716;51.556;5.080;2023-07-29T02:33:40;100012.06;;;18.46;100.00
36748;BME280;22716;51.556;5.080;2023-07-29T02:36:10;100006.00;;;18.44;100.00
36748;BME280;22716;51.556;5.080;2023-07-29T02:38:39;100007.97;;;18.41;100.00
36748;BME280;22716;51.556;5.080;2023-07-29T02:41:08;100002.94;;;18.36;100.00
36748;BME280;22716;51.556;5.080;2023-07-29T02:43:42;100013.94;;;18.29;100.00
36748;BME280;22716;51.556;5.080;2023-07-29T02:46:11;99998.72;;;18.17;100.00
36748;BME280;22716;51.556;5.080;2023-07-29T02:48:41;100010.00;;;18.20;100.00
36748;BME280;22716;51.556;5.080;2023-07-29T02:51:10;100016.09;;;18.22;100.00
36748;BME280;22716;51.556;5.080;2023-07-29T02:53:39;100017.19;;;18.18;100.00
36748;BME280;22716;51.556;5.080;2023-07-29T02:56:09;100022.59;;;18.17;100.00
36748;BME280;22716;51.556;5.080;2023-07-29T02:58:40;100008.69;;;18.12;100.00
36748;BME280;22716;51.556;5.080;2023-07-29T03:01:09;100006.22;;;18.09;100.00
36748;BME280;22716;51.556;5.080;2023-07-29T03:03:38;100016.75;;;18.10;100.00
36748;BME280;22716;51.556;5.080;2023-07-29T03:06:10;100007.25;;;18.06;100.00
36748;BME280;22716;51.556;5.080;2023-07-29T03:08:39;100006.66;;;18.01;100.00
36748;BME280;22716;51.556;5.080;2023-07-29T03:11:10;100005.09;;;17.97;100.00
36748;BME280;22716;51.556;5.080;2023-07-29T03:13:42;100003.22;;;17.99;100.00
36748;BME280;22716;51.556;5.080;2023-07-29T03:16:12;100011.41;;;17.95;100.00
36748;BME280;22716;51.556;5.080;2023-07-29T03:18:43;100019.63;;;17.90;100.00
36748;BME280;22716;51.556;5.080;2023-07-29T03:21:12;100024.13;;;17.88;100.00
36748;BME280;22716;51.556;5.080;2023-07-29T03:23:40;100018.06;;;17.86;100.00
36748;BME280;22716;51.556;5.080;2023-07-29T03:26:09;100025.09;;;17.87;100.00
36748;BME280;22716;51.556;5.080;2023-07-29T03:28:42;100021.47;;;17.88;100.00
36748;BME280;22716;51.556;5.080;2023-07-29T03:31:11;100024.22;;;17.86;100.00
36748;BME280;22716;51.556;5.080;2023-07-29T03:33:39;100018.22;;;17.83;100.00
36748;BME280;22716;51.556;5.080;2023-07-29T03:36:08;100015.75;;;17.80;100.00
36748;BME280;22716;51.556;5.080;2023-07-29T03:38:37;100014.81;;;17.81;100.00
36748;BME280;22716;51.556;5.080;2023-07-29T03:41:07;100021.81;;;17.82;100.00
36748;BME280;22716;51.556;5.080;2023-07-29T03:43:36;100007.78;;;17.80;100.00
36748;BME280;22716;51.556;5.080;2023-07-29T03:46:07;99999.84;;;17.80;100.00
36748;BME280;22716;51.556;5.080;2023-07-29T03:48:36;100002.50;;;17.80;100.00
36748;BME280;22716;51.556;5.080;2023-07-29T03:51:05;99992.81;;;17.79;100.00
36748;BME280;22716;51.556;5.080;2023-07-29T03:53:34;99979.81;;;17.74;100.00
36748;BME280;22716;51.556;5.080;2023-07-29T03:56:03;99977.13;;;17.76;100.00
36748;BME280;22716;51.556;5.080;2023-07-29T03:58:31;99977.28;;;17.73;100.00
36748;BME280;22716;51.556;5.080;2023-07-29T04:01:00;99975.63;;;17.70;100.00
36748;BME280;22716;51.556;5.080;2023-07-29T04:03:33;99973.75;;;17.72;100.00
36748;BME280;22716;51.556;5.080;2023-07-29T04:06:02;99980.25;;;17.67;100.00
36748;BME280;22716;51.556;5.080;2023-07-29T04:08:31;99995.13;;;17.69;100.00
36748;BME280;22716;51.556;5.080;2023-07-29T04:11:00;99991.00;;;17.64;100.00
36748;BME280;22716;51.556;5.080;2023-07-29T04:13:28;100001.75;;;17.61;100.00
36748;BME280;22716;51.556;5.080;2023-07-29T04:15:57;100014.22;;;17.59;100.00
36748;BME280;22716;51.556;5.080;2023-07-29T04:18:25;100019.50;;;17.59;100.00
36748;BME280;22716;51.556;5.080;2023-07-29T04:20:57;100013.88;;;17.48;100.00
36748;BME280;22716;51.556;5.080;2023-07-29T04:23:26;100035.66;;;17.54;100.00
36748;BME280;22716;51.556;5.080;2023-07-29T04:25:54;100021.66;;;17.51;100.00
36748;BME280;22716;51.556;5.080;2023-07-29T04:28:23;100019.78;;;17.53;100.00
36748;BME280;22716;51.556;5.080;2023-07-29T04:30:52;100025.94;;;17.53;100.00
36748;BME280;22716;51.556;5.080;2023-07-29T04:33:21;100029.47;;;17.54;100.00
36748;BME280;22716;51.556;5.080;2023-07-29T04:35:49;100026.91;;;17.52;100.00
36748;BME280;22716;51.556;5.080;2023-07-29T04:38:21;100036.41;;;17.56;100.00
36748;BME280;22716;51.556;5.080;2023-07-29T04:40:49;100026.78;;;17.55;100.00
36748;BME280;22716;51.556;5.080;2023-07-29T04:43:18;100035.41;;;17.59;100.00
36748;BME280;22716;51.556;5.080;2023-07-29T04:45:46;100032.06;;;17.55;100.00
36748;BME280;22716;51.556;5.080;2023-07-29T04:48:15;100029.47;;;17.54;100.00
36748;BME280;22716;51.556;5.080;2023-07-29T04:50:44;100042.66;;;17.55;100.00
36748;BME280;22716;51.556;5.080;2023-07-29T04:53:12;100033.78;;;17.56;100.00
36748;BME280;22716;51.556;5.080;2023-07-29T04:55:44;100041.56;;;17.59;100.00
36748;BME280;22716;51.556;5.080;2023-07-29T04:58:13;100038.03;;;17.59;100.00
36748;BME280;22716;51.556;5.080;2023-07-29T05:00:41;100036.34;;;17.58;100.00
36748;BME280;22716;51.556;5.080;2023-07-29T05:03:10;100034.63;;;17.57;100.00
36748;BME280;22716;51.556;5.080;2023-07-29T05:05:38;100039.06;;;17.56;100.00
36748;BME280;22716;51.556;5.080;2023-07-29T05:08:07;100055.66;;;17.60;100.00
36748;BME280;22716;51.556;5.080;2023-07-29T05:10:36;100039.94;;;17.57;100.00
36748;BME280;22716;51.556;5.080;2023-07-29T05:13:07;100046.16;;;17.56;100.00
36748;BME280;22716;51.556;5.080;2023-07-29T05:15:36;100046.84;;;17.59;100.00
36748;BME280;22716;51.556;5.080;2023-07-29T05:18:05;100032.84;;;17.57;100.00
36748;BME280;22716;51.556;5.080;2023-07-29T05:20:33;100044.13;;;17.61;100.00
36748;BME280;22716;51.556;5.080;2023-07-29T05:23:02;100043.28;;;17.60;100.00
36748;BME280;22716;51.556;5.080;2023-07-29T05:25:31;100039.44;;;17.66;100.00
36748;BME280;22716;51.556;5.080;2023-07-29T05:28:00;100041.03;;;17.70;100.00
36748;BME280;22716;51.556;5.080;2023-07-29T05:30:32;100041.63;;;17.75;100.00
36748;BME280;22716;51.556;5.080;2023-07-29T05:33:03;100041.47;;;17.78;100.00
36748;BME280;22716;51.556;5.080;2023-07-29T05:35:33;100031.72;;;17.78;100.00
36748;BME280;22716;51.556;5.080;2023-07-29T05:38:01;100052.78;;;17.81;100.00
36748;BME280;22716;51.556;5.080;2023-07-29T05:40:32;100042.16;;;17.81;100.00
36748;BME280;22716;51.556;5.080;2023-07-29T05:43:01;100043.78;;;17.84;100.00
36748;BME280;22716;51.556;5.080;2023-07-29T05:45:32;100040.13;;;17.86;100.00
36748;BME280;22716;51.556;5.080;2023-07-29T05:48:01;100042.69;;;17.88;100.00
36748;BME280;22716;51.556;5.080;2023-07-29T05:50:30;100039.09;;;17.89;100.00
36748;BME280;22716;51.556;5.080;2023-07-29T05:52:58;100041.69;;;17.90;100.00
36748;BME280;22716;51.556;5.080;2023-07-29T05:55:27;100039.72;;;17.94;100.00
36748;BME280;22716;51.556;5.080;2023-07-29T05:57:55;100043.22;;;17.95;100.00
36748;BME280;22716;51.556;5.080;2023-07-29T06:00:24;100041.88;;;18.03;100.00
36748;BME280;22716;51.556;5.080;2023-07-29T06:02:56;100046.69;;;18.12;100.00
36748;BME280;22716;51.556;5.080;2023-07-29T06:05:24;100041.59;;;18.25;100.00
36748;BME280;22716;51.556;5.080;2023-07-29T06:07:53;100048.41;;;18.29;100.00
36748;BME280;22716;51.556;5.080;2023-07-29T06:10:22;100046.78;;;18.26;100.00
36748;BME280;22716;51.556;5.080;2023-07-29T06:12:51;100037.97;;;18.26;100.00
36748;BME280;22716;51.556;5.080;2023-07-29T06:15:19;100050.22;;;18.28;100.00
36748;BME280;22716;51.556;5.080;2023-07-29T06:17:48;100049.97;;;18.33;100.00
36748;BME280;22716;51.556;5.080;2023-07-29T06:20:20;100042.44;;;18.41;100.00
36748;BME280;22716;51.556;5.080;2023-07-29T06:22:49;100046.72;;;18.43;100.00
36748;BME280;22716;51.556;5.080;2023-07-29T06:25:18;100046.66;;;18.45;100.00
36748;BME280;22716;51.556;5.080;2023-07-29T06:27:48;100033.22;;;18.48;100.00
36748;BME280;22716;51.556;5.080;2023-07-29T06:30:17;100040.00;;;18.54;100.00
36748;BME280;22716;51.556;5.080;2023-07-29T06:32:46;100039.06;;;18.70;100.00
36748;BME280;22716;51.556;5.080;2023-07-29T06:35:15;100046.38;;;18.96;100.00
36748;BME280;22716;51.556;5.080;2023-07-29T06:37:46;100044.28;;;19.17;100.00
36748;BME280;22716;51.556;5.080;2023-07-29T06:40:15;100048.53;;;19.35;100.00
36748;BME280;22716;51.556;5.080;2023-07-29T06:42:43;100051.25;;;19.49;100.00
36748;BME280;22716;51.556;5.080;2023-07-29T06:45:12;100049.63;;;19.77;100.00
36748;BME280;22716;51.556;5.080;2023-07-29T06:47:41;100052.59;;;20.00;100.00
36748;BME280;22716;51.556;5.080;2023-07-29T06:50:10;100056.28;;;19.84;100.00
36748;BME280;22716;51.556;5.080;2023-07-29T06:52:39;100060.75;;;19.83;100.00
36748;BME280;22716;51.556;5.080;2023-07-29T06:55:10;100060.06;;;19.80;100.00
36748;BME280;22716;51.556;5.080;2023-07-29T06:57:39;100072.22;;;19.84;100.00
36748;BME280;22716;51.556;5.080;2023-07-29T07:00:09;100069.03;;;19.93;100.00
36748;BME280;22716;51.556;5.080;2023-07-29T07:02:38;100060.94;;;20.08;100.00
36748;BME280;22716;51.556;5.080;2023-07-29T07:05:07;100068.56;;;20.29;100.00
36748;BME280;22716;51.556;5.080;2023-07-29T07:07:36;100066.69;;;20.31;100.00
36748;BME280;22716;51.556;5.080;2023-07-29T07:10:06;100068.84;;;20.24;100.00
36748;BME280;22716;51.556;5.080;2023-07-29T07:12:37;100078.81;;;20.06;100.00
36748;BME280;22716;51.556;5.080;2023-07-29T07:15:07;100073.78;;;20.02;100.00
36748;BME280;22716;51.556;5.080;2023-07-29T07:17:36;100068.91;;;20.08;100.00
36748;BME280;22716;51.556;5.080;2023-07-29T07:20:07;100073.78;;;20.16;100.00
36748;BME280;22716;51.556;5.080;2023-07-29T07:22:36;100068.72;;;20.11;100.00
36748;BME280;22716;51.556;5.080;2023-07-29T07:25:06;100071.97;;;20.17;100.00
36748;BME280;22716;51.556;5.080;2023-07-29T07:27:37;100080.84;;;20.31;100.00
36748;BME280;22716;51.556;5.080;2023-07-29T07:30:07;100086.72;;;20.36;100.00
36748;BME280;22716;51.556;5.080;2023-07-29T07:32:36;100092.03;;;20.50;100.00
36748;BME280;22716;51.556;5.080;2023-07-29T07:35:05;100093.44;;;20.56;100.00
36748;BME280;22716;51.556;5.080;2023-07-29T07:37:34;100087.81;;;20.75;100.00
36748;BME280;22716;51.556;5.080;2023-07-29T07:40:04;100093.91;;;20.77;100.00
36748;BME280;22716;51.556;5.080;2023-07-29T07:42:33;100103.22;;;20.69;100.00
36748;BME280;22716;51.556;5.080;2023-07-29T07:45:05;100094.84;;;20.76;100.00
36748;BME280;22716;51.556;5.080;2023-07-29T07:47:34;100104.56;;;20.62;100.00
36748;BME280;22716;51.556;5.080;2023-07-29T07:50:04;100107.25;;;20.48;100.00
36748;BME280;22716;51.556;5.080;2023-07-29T07:52:33;100102.13;;;20.31;100.00
36748;BME280;22716;51.556;5.080;2023-07-29T07:55:02;100099.84;;;20.25;100.00
36748;BME280;22716;51.556;5.080;2023-07-29T07:57:30;100100.28;;;20.32;100.00
36748;BME280;22716;51.556;5.080;2023-07-29T07:59:59;100106.03;;;20.40;100.00
36748;BME280;22716;51.556;5.080;2023-07-29T08:02:30;100101.06;;;20.34;100.00
36748;BME280;22716;51.556;5.080;2023-07-29T08:04:59;100091.06;;;20.23;100.00
36748;BME280;22716;51.556;5.080;2023-07-29T08:07:28;100102.31;;;20.28;100.00
36748;BME280;22716;51.556;5.080;2023-07-29T08:09:56;100100.09;;;20.35;100.00
36748;BME280;22716;51.556;5.080;2023-07-29T08:12:25;100104.09;;;20.42;100.00
36748;BME280;22716;51.556;5.080;2023-07-29T08:14:54;100099.06;;;20.37;100.00
36748;BME280;22716;51.556;5.080;2023-07-29T08:17:22;100109.31;;;20.43;100.00
36748;BME280;22716;51.556;5.080;2023-07-29T08:19:54;100101.94;;;20.48;100.00
36748;BME280;22716;51.556;5.080;2023-07-29T08:22:23;100097.66;;;20.46;100.00
36748;BME280;22716;51.556;5.080;2023-07-29T08:24:51;100096.00;;;20.43;100.00
36748;BME280;22716;51.556;5.080;2023-07-29T08:27:20;100101.25;;;20.45;100.00
36748;BME280;22716;51.556;5.080;2023-07-29T08:29:49;100100.56;;;20.55;100.00
36748;BME280;22716;51.556;5.080;2023-07-29T08:32:17;100089.91;;;20.69;100.00
36748;BME280;22716;51.556;5.080;2023-07-29T08:34:46;100094.19;;;20.72;100.00
36748;BME280;22716;51.556;5.080;2023-07-29T08:37:17;100091.22;;;20.77;100.00
36748;BME280;22716;51.556;5.080;2023-07-29T08:39:46;100093.00;;;20.90;100.00
36748;BME280;22716;51.556;5.080;2023-07-29T08:42:18;100098.97;;;20.94;100.00
36748;BME280;22716;51.556;5.080;2023-07-29T08:44:49;100083.25;;;20.77;100.00
36748;BME280;22716;51.556;5.080;2023-07-29T08:47:18;100101.59;;;20.81;100.00
36748;BME280;22716;51.556;5.080;2023-07-29T08:49:48;100105.59;;;20.74;100.00
36748;BME280;22716;51.556;5.080;2023-07-29T08:52:22;100106.06;;;20.81;100.00
36748;BME280;22716;51.556;5.080;2023-07-29T08:54:51;100107.81;;;21.08;100.00
36748;BME280;22716;51.556;5.080;2023-07-29T08:57:21;100093.50;;;21.23;100.00
36748;BME280;22716;51.556;5.080;2023-07-29T08:59:52;100105.16;;;21.35;100.00
36748;BME280;22716;51.556;5.080;2023-07-29T09:02:20;100098.44;;;21.30;100.00
36748;BME280;22716;51.556;5.080;2023-07-29T09:04:49;100096.22;;;21.49;100.00
36748;BME280;22716;51.556;5.080;2023-07-29T09:07:18;100106.63;;;21.66;100.00
36748;BME280;22716;51.556;5.080;2023-07-29T09:09:50;100105.25;;;21.73;100.00
36748;BME280;22716;51.556;5.080;2023-07-29T09:12:19;100097.25;;;21.73;100.00
36748;BME280;22716;51.556;5.080;2023-07-29T09:14:51;100099.41;;;21.81;100.00
36748;BME280;22716;51.556;5.080;2023-07-29T09:17:20;100096.78;;;21.93;100.00
36748;BME280;22716;51.556;5.080;2023-07-29T09:19:50;100090.50;;;21.94;100.00
36748;BME280;22716;51.556;5.080;2023-07-29T09:22:20;100102.56;;;22.12;100.00
36748;BME280;22716;51.556;5.080;2023-07-29T09:24:53;100099.97;;;22.11;100.00
36748;BME280;22716;51.556;5.080;2023-07-29T09:27:26;100102.97;;;22.06;100.00
36748;BME280;22716;51.556;5.080;2023-07-29T09:29:57;100105.41;;;21.97;100.00
36748;BME280;22716;51.556;5.080;2023-07-29T09:32:26;100103.63;;;22.10;100.00
36748;BME280;22716;51.556;5.080;2023-07-29T09:34:55;100110.44;;;22.14;100.00
36748;BME280;22716;51.556;5.080;2023-07-29T09:37:24;100099.97;;;22.11;100.00
36748;BME280;22716;51.556;5.080;2023-07-29T09:39:55;100101.72;;;22.24;100.00
36748;BME280;22716;51.556;5.080;2023-07-29T09:42:24;100096.03;;;22.29;100.00
36748;BME280;22716;51.556;5.080;2023-07-29T09:44:52;100091.34;;;22.32;100.00
36748;BME280;22716;51.556;5.080;2023-07-29T09:47:22;100096.69;;;22.32;100.00
36748;BME280;22716;51.556;5.080;2023-07-29T09:49:52;100095.94;;;22.30;100.00
36748;BME280;22716;51.556;5.080;2023-07-29T09:52:22;100092.41;;;22.30;100.00
36748;BME280;22716;51.556;5.080;2023-07-29T09:54:51;100097.53;;;22.33;100.00
36748;BME280;22716;51.556;5.080;2023-07-29T09:57:22;100087.16;;;22.41;100.00
36748;BME280;22716;51.556;5.080;2023-07-29T09:59:56;100091.13;;;22.48;100.00
36748;BME280;22716;51.556;5.080;2023-07-29T10:02:26;100090.56;;;22.56;100.00
36748;BME280;22716;51.556;5.080;2023-07-29T10:04:56;100093.03;;;22.71;100.00
36748;BME280;22716;51.556;5.080;2023-07-29T10:07:28;100091.81;;;22.75;100.00
36748;BME280;22716;51.556;5.080;2023-07-29T10:09:58;100092.69;;;22.76;100.00
36748;BME280;22716;51.556;5.080;2023-07-29T10:12:31;100090.78;;;22.65;100.00
36748;BME280;22716;51.556;5.080;2023-07-29T10:15:01;100089.38;;;22.72;100.00
36748;BME280;22716;51.556;5.080;2023-07-29T10:17:30;100089.06;;;22.77;99.61
36748;BME280;22716;51.556;5.080;2023-07-29T10:20:03;100084.56;;;22.77;100.00
36748;BME280;22716;51.556;5.080;2023-07-29T10:22:35;100081.75;;;22.92;100.00
36748;BME280;22716;51.556;5.080;2023-07-29T10:25:07;100063.72;;;22.82;100.00
36748;BME280;22716;51.556;5.080;2023-07-29T10:27:47;100082.53;;;23.05;99.83
36748;BME280;22716;51.556;5.080;2023-07-29T10:30:16;100080.84;;;23.04;99.29
36748;BME280;22716;51.556;5.080;2023-07-29T10:32:46;100072.69;;;23.05;99.01
36748;BME280;22716;51.556;5.080;2023-07-29T10:35:15;100069.94;;;23.07;98.65
36748;BME280;22716;51.556;5.080;2023-07-29T10:37:44;100072.06;;;23.02;97.94
36748;BME280;22716;51.556;5.080;2023-07-29T10:40:16;100071.47;;;22.98;98.16
36748;BME280;22716;51.556;5.080;2023-07-29T10:43:09;100077.34;;;22.91;98.69
36748;BME280;22716;51.556;5.080;2023-07-29T10:45:39;100075.56;;;22.78;99.43
36748;BME280;22716;51.556;5.080;2023-07-29T10:48:10;100069.84;;;22.72;99.68
36748;BME280;22716;51.556;5.080;2023-07-29T10:50:39;100083.41;;;22.56;100.00
36748;BME280;22716;51.556;5.080;2023-07-29T10:53:08;100075.94;;;22.49;100.00
36748;BME280;22716;51.556;5.080;2023-07-29T10:55:37;100074.78;;;22.40;100.00
36748;BME280;22716;51.556;5.080;2023-07-29T10:58:12;100078.22;;;22.42;100.00
36748;BME280;22716;51.556;5.080;2023-07-29T11:00:43;100069.66;;;22.37;100.00
36748;BME280;22716;51.556;5.080;2023-07-29T11:03:13;100075.84;;;22.38;100.00
36748;BME280;22716;51.556;5.080;2023-07-29T11:05:48;100076.84;;;22.24;100.00
36748;BME280;22716;51.556;5.080;2023-07-29T11:08:22;100080.34;;;22.12;100.00
36748;BME280;22716;51.556;5.080;2023-07-29T11:10:59;100084.59;;;22.02;100.00
36748;BME280;22716;51.556;5.080;2023-07-29T11:13:34;100084.00;;;21.98;100.00
36748;BME280;22716;51.556;5.080;2023-07-29T11:16:04;100084.09;;;21.97;100.00
36748;BME280;22716;51.556;5.080;2023-07-29T11:18:35;100098.69;;;21.91;100.00
36748;BME280;22716;51.556;5.080;2023-07-29T11:21:05;100111.88;;;21.80;100.00
36748;BME280;22716;51.556;5.080;2023-07-29T11:23:36;100092.25;;;21.68;100.00
36748;BME280;22716;51.556;5.080;2023-07-29T11:26:05;100095.63;;;21.58;100.00
36748;BME280;22716;51.556;5.080;2023-07-29T11:28:40;100092.16;;;21.43;100.00
36748;BME280;22716;51.556;5.080;2023-07-29T11:31:09;100085.56;;;21.36;100.00
36748;BME280;22716;51.556;5.080;2023-07-29T11:33:39;100085.03;;;21.31;100.00
36748;BME280;22716;51.556;5.080;2023-07-29T11:36:17;100089.22;;;21.21;100.00
36748;BME280;22716;51.556;5.080;2023-07-29T11:38:47;100098.31;;;21.04;100.00
36748;BME280;22716;51.556;5.080;2023-07-29T11:41:19;100096.25;;;20.95;100.00
36748;BME280;22716;51.556;5.080;2023-07-29T11:43:53;100104.91;;;20.85;100.00
36748;BME280;22716;51.556;5.080;2023-07-29T11:46:22;100095.19;;;20.98;100.00
36748;BME280;22716;51.556;5.080;2023-07-29T11:48:53;100075.00;;;21.08;100.00
36748;BME280;22716;51.556;5.080;2023-07-29T11:51:25;100057.50;;;21.04;100.00
36748;BME280;22716;51.556;5.080;2023-07-29T11:53:54;100084.66;;;21.23;100.00
36748;BME280;22716;51.556;5.080;2023-07-29T11:56:23;100080.78;;;21.14;100.00
36748;BME280;22716;51.556;5.080;2023-07-29T11:58:56;100096.09;;;21.11;100.00
36748;BME280;22716;51.556;5.080;2023-07-29T12:01:26;100101.72;;;21.06;100.00
36748;BME280;22716;51.556;5.080;2023-07-29T12:03:56;100123.81;;;20.94;100.00
36748;BME280;22716;51.556;5.080;2023-07-29T12:06:26;100112.53;;;20.77;100.00
36748;BME280;22716;51.556;5.080;2023-07-29T12:08:57;100140.00;;;20.35;100.00
36748;BME280;22716;51.556;5.080;2023-07-29T12:11:26;100122.84;;;19.96;100.00
36748;BME280;22716;51.556;5.080;2023-07-29T12:13:59;100132.69;;;19.80;100.00
36748;BME280;22716;51.556;5.080;2023-07-29T12:16:29;100143.91;;;19.85;100.00
36748;BME280;22716;51.556;5.080;2023-07-29T12:19:00;100130.09;;;19.79;100.00
36748;BME280;22716;51.556;5.080;2023-07-29T12:21:29;100082.72;;;19.57;100.00
36748;BME280;22716;51.556;5.080;2023-07-29T12:23:58;100119.84;;;19.73;100.00
36748;BME280;22716;51.556;5.080;2023-07-29T12:26:27;100114.34;;;19.76;100.00
36748;BME280;22716;51.556;5.080;2023-07-29T12:28:59;100119.13;;;19.85;100.00
36748;BME280;22716;51.556;5.080;2023-07-29T12:31:31;100118.50;;;19.95;100.00
36748;BME280;22716;51.556;5.080;2023-07-29T12:34:01;100117.94;;;20.19;100.00
36748;BME280;22716;51.556;5.080;2023-07-29T12:36:42;100118.09;;;20.31;100.00
36748;BME280;22716;51.556;5.080;2023-07-29T12:39:18;100117.03;;;20.34;100.00
36748;BME280;22716;51.556;5.080;2023-07-29T12:41:49;100113.03;;;20.41;100.00
36748;BME280;22716;51.556;5.080;2023-07-29T12:44:22;100104.78;;;20.45;100.00
36748;BME280;22716;51.556;5.080;2023-07-29T12:46:52;100109.59;;;20.67;100.00
36748;BME280;22716;51.556;5.080;2023-07-29T12:49:20;100097.22;;;20.80;100.00
36748;BME280;22716;51.556;5.080;2023-07-29T12:51:50;100093.00;;;20.90;100.00
36748;BME280;22716;51.556;5.080;2023-07-29T12:54:19;100100.50;;;21.12;100.00